Time;durP1;ratioP1;P1;durP2;ratioP2;P2;SDS_P1;SDS_P2;PMS_P1;PMS_P2;Temp;Humidity;BMP_temperature;BMP_pressure;BME280_temperature;BME280_humidity;BME280_pressure;Samples;Min_cycle;Max_cycle;Signal;HPM_P1;HPM_P2
2023/07/10 00:02:52;;;;;;;8.57;5.03;;;;;;;20.76;100.00;100855.63;6158819;28;20161;-94
2023/07/10 00:05:55;;;;;;;6.78;4.57;;;;;;;20.76;100.00;100850.34;6152649;28;20506;-93
2023/07/10 00:08:57;;;;;;;6.05;4.97;;;;;;;20.78;100.00;100839.66;6161292;28;20038;-93
2023/07/10 00:11:59;;;;;;;6.22;4.45;;;;;;;20.80;100.00;100833.22;6141918;28;20414;-92
2023/07/10 00:15:07;;;;;;;7.45;5.25;;;;;;;20.86;100.00;100826.41;6149563;28;20394;-93
2023/07/10 00:18:20;;;;;;;6.43;4.70;;;;;;;20.88;100.00;100823.59;6147736;28;20129;-93
2023/07/10 00:21:22;;;;;;;7.57;5.20;;;;;;;20.80;100.00;100827.94;6141830;28;20039;-93
2023/07/10 00:24:24;;;;;;;8.70;4.90;;;;;;;20.51;100.00;100822.63;6142801;28;20066;-94
2023/07/10 00:27:26;;;;;;;8.57;5.18;;;;;;;20.21;100.00;100833.88;6140643;28;20056;-93
2023/07/10 00:30:28;;;;;;;10.40;5.50;;;;;;;20.42;100.00;100830.59;6140984;28;20047;-93
2023/07/10 00:33:30;;;;;;;9.25;5.15;;;;;;;20.21;100.00;100839.16;6143977;28;20055;-93
2023/07/10 00:36:40;;;;;;;9.20;5.13;;;;;;;20.36;100.00;100841.00;6139825;28;20125;-93
2023/07/10 00:39:43;;;;;;;5.73;5.00;;;;;;;20.11;100.00;100846.44;6148276;28;20489;-93
2023/07/10 00:42:46;;;;;;;10.68;5.38;;;;;;;20.35;100.00;100844.63;6140567;28;20155;-93
2023/07/10 00:45:53;;;;;;;9.65;5.47;;;;;;;20.15;100.00;100834.59;6128515;28;20051;-93
2023/07/10 00:49:02;;;;;;;6.88;5.15;;;;;;;20.40;100.00;100837.03;6142115;28;20585;-93
2023/07/10 00:52:24;;;;;;;8.13;4.63;;;;;;;20.47;100.00;100829.22;6148505;28;20544;-93
2023/07/10 00:55:38;;;;;;;16.77;5.93;;;;;;;20.43;100.00;100823.53;6139634;28;20082;-93
2023/07/10 00:58:45;;;;;;;11.77;4.95;;;;;;;20.42;100.00;100835.88;6140900;28;20054;-93
2023/07/10 01:02:15;;;;;;;12.23;5.25;;;;;;;20.52;100.00;100837.41;6143845;28;20178;-93
2023/07/10 01:05:19;;;;;;;8.73;5.90;;;;;;;20.22;100.00;100845.22;6138507;28;20043;-92
2023/07/10 01:08:23;;;;;;;11.05;5.43;;;;;;;20.13;100.00;100833.97;6141679;28;20230;-93
2023/07/10 01:11:26;;;;;;;9.43;5.28;;;;;;;20.10;100.00;100817.72;6150469;28;20416;-93
2023/07/10 01:14:34;;;;;;;10.68;5.30;;;;;;;20.08;100.00;100828.41;6141558;28;20047;-93
2023/07/10 01:17:37;;;;;;;10.20;5.53;;;;;;;20.00;100.00;100823.22;6137115;28;20057;-93
2023/07/10 01:20:46;;;;;;;12.88;5.20;;;;;;;19.94;100.00;100832.59;6139718;28;20036;-93
2023/07/10 01:23:49;;;;;;;10.18;6.20;;;;;;;20.10;100.00;100841.38;6138901;28;20050;-93
2023/07/10 01:26:51;;;;;;;8.75;5.13;;;;;;;20.18;100.00;100854.47;6154460;28;20047;-92
2023/07/10 01:30:05;;;;;;;12.18;5.75;;;;;;;20.13;100.00;100869.94;6138545;28;20444;-92
2023/07/10 01:33:14;;;;;;;13.93;5.53;;;;;;;20.21;100.00;100865.44;6136737;28;20261;-93
2023/07/10 01:36:19;;;;;;;10.83;5.57;;;;;;;20.58;100.00;100863.03;6140256;28;20055;-92
2023/07/10 01:39:46;;;;;;;9.18;5.43;;;;;;;20.67;100.00;100866.38;6139199;28;20043;-93
2023/07/10 01:42:48;;;;;;;9.82;5.18;;;;;;;20.63;100.00;100855.41;6115479;29;20044;-93
2023/07/10 01:45:50;;;;;;;10.50;5.97;;;;;;;20.64;100.00;100847.38;6133515;28;20138;-94
2023/07/10 01:49:00;;;;;;;13.93;5.03;;;;;;;20.65;100.00;100848.97;6135627;28;20051;-93
2023/07/10 01:52:04;;;;;;;13.05;5.47;;;;;;;20.68;100.00;100865.41;6146666;28;20145;-93
2023/07/10 01:55:08;;;;;;;13.23;5.18;;;;;;;20.57;100.00;100880.63;6152696;28;20040;-93
2023/07/10 01:58:11;;;;;;;13.98;6.40;;;;;;;20.58;100.00;100870.94;6138934;28;20050;-93
2023/07/10 02:01:14;;;;;;;8.60;5.35;;;;;;;20.62;100.00;100864.28;6130107;28;20047;-93
2023/07/10 02:04:16;;;;;;;13.38;6.00;;;;;;;20.71;100.00;100852.69;6158299;28;20096;-93
2023/07/10 02:07:18;;;;;;;9.85;6.07;;;;;;;20.74;100.00;100865.50;6154981;28;20055;-93
2023/07/10 02:10:20;;;;;;;12.32;6.10;;;;;;;20.81;100.00;100868.22;6144258;28;20162;-93
2023/07/10 02:13:33;;;;;;;10.65;5.45;;;;;;;20.91;100.00;100875.88;6150459;28;20050;-93
2023/07/10 02:16:35;;;;;;;8.93;5.78;;;;;;;20.95;100.00;100843.75;6137501;28;20035;-93
2023/07/10 02:19:37;;;;;;;9.85;5.85;;;;;;;20.64;100.00;100841.25;6142005;28;20050;-96
2023/07/10 02:22:39;;;;;;;9.15;5.63;;;;;;;20.49;100.00;100835.13;6137755;28;20122;-94
2023/07/10 02:25:42;;;;;;;7.97;5.40;;;;;;;20.41;100.00;100836.84;6134200;28;20042;-96
2023/07/10 02:28:44;;;;;;;9.57;5.97;;;;;;;20.18;100.00;100838.69;6124029;28;20054;-94
2023/07/10 02:31:50;;;;;;;8.75;5.50;;;;;;;20.11;100.00;100843.00;6138677;28;20035;-94
2023/07/10 02:34:53;;;;;;;8.55;5.95;;;;;;;20.03;100.00;100853.59;6137347;28;20126;-93
2023/07/10 02:37:54;;;;;;;10.38;5.75;;;;;;;19.95;100.00;100873.69;6147586;28;20074;-94
2023/07/10 02:40:57;;;;;;;16.08;6.00;;;;;;;19.88;100.00;100885.06;6137636;28;20042;-94
2023/07/10 02:44:01;;;;;;;15.40;6.18;;;;;;;20.05;100.00;100880.50;6137821;28;20030;-94
2023/07/10 02:47:03;;;;;;;19.83;6.63;;;;;;;20.08;100.00;100883.59;6147857;28;20043;-94
2023/07/10 02:50:05;;;;;;;18.50;7.30;;;;;;;20.16;100.00;100888.00;6138179;28;20035;-93
2023/07/10 02:53:08;;;;;;;14.13;6.70;;;;;;;20.12;100.00;100873.56;6149214;28;20050;-94
2023/07/10 02:56:10;;;;;;;16.40;6.63;;;;;;;20.11;100.00;100877.19;6142532;28;20043;-93
2023/07/10 02:59:12;;;;;;;16.55;7.57;;;;;;;20.10;100.00;100872.91;6141261;28;20119;-95
2023/07/10 03:02:14;;;;;;;16.80;6.70;;;;;;;20.10;100.00;100875.53;6143332;28;20559;-94
2023/07/10 03:05:16;;;;;;;9.85;6.05;;;;;;;19.74;100.00;100890.03;6136781;28;20063;-94
2023/07/10 03:08:18;;;;;;;15.73;6.63;;;;;;;19.86;100.00;100897.53;6141926;28;20047;-94
2023/07/10 03:11:21;;;;;;;14.52;6.57;;;;;;;19.68;100.00;100895.19;6142962;28;20039;-94
2023/07/10 03:14:23;;;;;;;18.27;6.18;;;;;;;19.67;100.00;100883.00;6138753;28;20054;-94
2023/07/10 03:17:25;;;;;;;14.70;6.57;;;;;;;19.67;100.00;100889.09;6143382;28;20079;-93
2023/07/10 03:20:29;;;;;;;13.43;6.78;;;;;;;19.66;100.00;100899.75;6141754;28;20047;-94
2023/07/10 03:23:31;;;;;;;16.02;6.75;;;;;;;19.73;100.00;100893.66;6145293;28;20071;-93
2023/07/10 03:26:33;;;;;;;16.30;7.65;;;;;;;19.68;100.00;100885.50;6146316;28;20502;-93
2023/07/10 03:29:36;;;;;;;16.85;7.07;;;;;;;19.90;100.00;100883.06;6143440;28;20058;-93
2023/07/10 03:32:38;;;;;;;16.17;7.13;;;;;;;19.85;100.00;100875.72;6144354;28;20151;-93
2023/07/10 03:35:41;;;;;;;10.98;7.07;;;;;;;20.08;100.00;100877.53;6145868;28;20047;-92
2023/07/10 03:38:45;;;;;;;14.95;6.35;;;;;;;20.10;100.00;100863.22;6141897;28;20074;-92
2023/07/10 03:41:47;;;;;;;13.48;6.47;;;;;;;20.06;100.00;100850.59;6145716;28;20413;-92
2023/07/10 03:44:49;;;;;;;10.40;6.30;;;;;;;20.11;100.00;100858.78;6155704;28;20050;-93
2023/07/10 03:47:51;;;;;;;15.48;6.00;;;;;;;20.20;100.00;100863.00;6134499;28;20289;-92
2023/07/10 03:50:53;;;;;;;15.20;6.50;;;;;;;20.20;100.00;100865.63;6156715;28;20520;-93
2023/07/10 03:53:55;;;;;;;15.95;5.80;;;;;;;19.96;100.00;100862.16;6156045;28;20043;-94
2023/07/10 03:56:57;;;;;;;10.48;5.60;;;;;;;20.17;100.00;100858.91;6142368;28;20043;-93
2023/07/10 03:59:59;;;;;;;12.50;5.65;;;;;;;19.95;100.00;100863.16;6149186;28;20070;-93
2023/07/10 04:03:01;;;;;;;14.30;6.63;;;;;;;19.95;100.00;100860.53;6145925;28;20054;-93
2023/07/10 04:06:04;;;;;;;10.93;6.18;;;;;;;19.96;100.00;100864.78;6143045;28;20054;-93
2023/07/10 04:09:07;;;;;;;11.43;6.47;;;;;;;19.99;100.00;100869.69;6143303;28;20130;-92
2023/07/10 04:12:09;;;;;;;8.18;5.60;;;;;;;20.00;100.00;100873.97;6142594;28;20043;-93
2023/07/10 04:15:11;;;;;;;16.77;7.07;;;;;;;20.04;100.00;100878.88;6136669;28;20051;-93
2023/07/10 04:18:13;;;;;;;13.98;5.90;;;;;;;20.25;100.00;100870.31;6141814;28;20048;-93
2023/07/10 04:21:21;;;;;;;13.98;6.38;;;;;;;19.95;100.00;100880.72;6142095;28;20047;-92
2023/07/10 04:24:23;;;;;;;8.60;5.85;;;;;;;20.04;100.00;100874.44;6141931;28;20035;-92
2023/07/10 04:27:26;;;;;;;13.52;5.85;;;;;;;20.09;100.00;100874.72;6142369;28;20039;-92
2023/07/10 04:30:28;;;;;;;11.45;5.47;;;;;;;20.24;100.00;100869.53;6138376;28;20047;-92
2023/07/10 04:33:30;;;;;;;12.68;6.47;;;;;;;20.24;100.00;100872.16;6127223;28;20145;-92
2023/07/10 04:36:36;;;;;;;12.43;7.25;;;;;;;20.29;100.00;100877.69;6143714;28;20610;-92
2023/07/10 04:39:38;;;;;;;13.68;8.18;;;;;;;20.32;100.00;100874.72;6144717;28;20047;-92
2023/07/10 04:42:39;;;;;;;13.00;7.70;;;;;;;20.33;100.00;100883.44;6146001;28;20072;-92
2023/07/10 04:45:41;;;;;;;15.18;7.70;;;;;;;20.40;100.00;100872.03;6148215;28;20043;-93
2023/07/10 04:48:43;;;;;;;9.73;7.78;;;;;;;20.60;100.00;100866.31;6140685;28;20073;-92
2023/07/10 04:51:46;;;;;;;16.73;9.35;;;;;;;20.77;100.00;100862.53;6148137;28;20039;-92
2023/07/10 04:54:47;;;;;;;11.32;8.77;;;;;;;20.82;100.00;100857.53;6150209;28;20079;-91
2023/07/10 04:57:49;;;;;;;15.43;9.98;;;;;;;21.07;100.00;100847.56;6140293;28;20497;-92
2023/07/10 05:00:53;;;;;;;13.77;9.90;;;;;;;20.99;100.00;100855.56;6153021;28;20051;-92
2023/07/10 05:03:56;;;;;;;14.48;9.48;;;;;;;21.06;100.00;100853.00;6139870;28;20047;-92
2023/07/10 05:07:02;;;;;;;19.75;10.05;;;;;;;21.16;100.00;100863.25;6140457;28;20512;-92
2023/07/10 05:10:05;;;;;;;14.02;9.68;;;;;;;21.24;100.00;100857.88;6145552;28;20050;-92
2023/07/10 05:13:07;;;;;;;12.80;9.63;;;;;;;21.44;100.00;100860.78;6143160;28;20054;-92
2023/07/10 05:16:09;;;;;;;16.45;10.00;;;;;;;21.34;100.00;100866.34;6144005;28;20043;-91
2023/07/10 05:19:11;;;;;;;19.88;11.95;;;;;;;21.33;100.00;100875.22;6125795;28;20490;-93
2023/07/10 05:22:13;;;;;;;17.67;11.68;;;;;;;21.20;100.00;100872.44;6147397;28;20051;-93
2023/07/10 05:25:15;;;;;;;16.73;12.60;;;;;;;21.28;100.00;100885.50;6142900;28;20183;-94
2023/07/10 05:28:17;;;;;;;18.63;12.50;;;;;;;21.48;100.00;100881.31;6153384;28;20039;-92
2023/07/10 05:31:19;;;;;;;20.05;13.43;;;;;;;21.52;100.00;100883.59;6141294;28;20074;-95
2023/07/10 05:34:23;;;;;;;18.30;13.40;;;;;;;21.37;100.00;100887.03;6142194;28;20412;-92
2023/07/10 05:37:26;;;;;;;17.95;12.75;;;;;;;21.30;100.00;100894.84;6141743;28;20049;-95
2023/07/10 05:40:28;;;;;;;19.45;11.75;;;;;;;21.26;100.00;100904.09;6128325;28;20052;-94
2023/07/10 05:43:31;;;;;;;18.88;12.60;;;;;;;21.25;100.00;100906.94;6128250;28;20043;-93
2023/07/10 05:46:34;;;;;;;22.08;12.73;;;;;;;21.15;100.00;100916.91;6138059;28;20502;-94
2023/07/10 05:49:36;;;;;;;21.08;13.57;;;;;;;21.13;100.00;100924.16;6140848;28;20047;-92
2023/07/10 05:52:38;;;;;;;17.70;12.15;;;;;;;21.06;100.00;100924.06;6133978;28;20171;-93
2023/07/10 05:55:50;;;;;;;20.73;12.15;;;;;;;21.13;100.00;100929.44;6134140;28;20094;-92
2023/07/10 05:58:52;;;;;;;16.73;11.32;;;;;;;21.19;100.00;100932.19;6139915;28;20046;-93
2023/07/10 06:01:54;;;;;;;15.82;11.02;;;;;;;21.23;100.00;100928.16;6143463;28;20051;-93
2023/07/10 06:04:56;;;;;;;17.58;10.68;;;;;;;21.22;100.00;100933.63;6130666;28;20109;-92
2023/07/10 06:07:58;;;;;;;16.08;9.98;;;;;;;20.85;100.00;100925.59;6140618;28;20126;-92
2023/07/10 06:11:01;;;;;;;14.77;10.52;;;;;;;20.98;100.00;100924.16;6138126;28;20039;-92
2023/07/10 06:14:03;;;;;;;15.32;10.95;;;;;;;20.69;100.00;100933.63;6141018;28;20769;-93
2023/07/10 06:17:05;;;;;;;15.90;10.77;;;;;;;20.59;100.00;100946.19;6133503;28;20076;-92
2023/07/10 06:20:07;;;;;;;19.20;11.45;;;;;;;20.80;100.00;100943.72;6135319;28;20134;-91
2023/07/10 06:23:09;;;;;;;16.05;11.68;;;;;;;20.68;100.00;100945.16;6143468;28;20493;-92
2023/07/10 06:26:12;;;;;;;15.93;11.80;;;;;;;20.56;100.00;100952.63;6148376;28;20051;-93
2023/07/10 06:29:14;;;;;;;15.75;11.70;;;;;;;20.57;100.00;100964.81;6139063;28;20509;-92
2023/07/10 06:32:16;;;;;;;19.42;12.63;;;;;;;20.52;100.00;100966.28;6139068;28;20043;-92
2023/07/10 06:35:18;;;;;;;18.25;12.98;;;;;;;20.49;100.00;100977.16;6135512;28;20119;-92
2023/07/10 06:38:22;;;;;;;18.30;12.98;;;;;;;20.41;100.00;100978.03;6150488;28;20039;-91
2023/07/10 06:41:27;;;;;;;20.35;13.43;;;;;;;20.39;100.00;100980.00;6138882;28;20110;-92
2023/07/10 06:44:29;;;;;;;18.65;12.80;;;;;;;20.42;100.00;100998.06;6151155;28;20409;-93
2023/07/10 06:47:33;;;;;;;19.85;11.55;;;;;;;20.37;100.00;101003.03;6154168;28;20043;-92
2023/07/10 06:50:36;;;;;;;15.57;11.30;;;;;;;20.41;100.00;100999.06;6151095;28;20043;-92
2023/07/10 06:53:38;;;;;;;16.08;11.38;;;;;;;20.44;100.00;100986.38;6153588;28;20073;-92
2023/07/10 06:56:39;;;;;;;14.40;10.23;;;;;;;20.47;100.00;100987.03;6143857;28;20140;-91
2023/07/10 06:59:42;;;;;;;13.63;10.45;;;;;;;20.42;100.00;100987.53;6144027;28;20043;-92
2023/07/10 07:02:43;;;;;;;13.60;9.35;;;;;;;20.28;100.00;100988.31;6140157;28;20282;-91
2023/07/10 07:05:46;;;;;;;13.23;9.48;;;;;;;20.21;100.00;100988.16;6144675;28;20043;-91
2023/07/10 07:08:51;;;;;;;13.50;9.57;;;;;;;20.11;100.00;100985.75;6139994;28;20049;-93
2023/07/10 07:11:53;;;;;;;15.05;9.82;;;;;;;20.24;100.00;100985.19;6146701;28;20432;-92
2023/07/10 07:14:55;;;;;;;13.70;9.93;;;;;;;20.10;100.00;100991.19;6140416;28;20043;-92
2023/07/10 07:17:57;;;;;;;14.77;10.88;;;;;;;20.26;100.00;100983.22;6139780;28;20086;-92
2023/07/10 07:20:59;;;;;;;14.00;9.85;;;;;;;20.26;100.00;100991.09;6145958;28;20051;-91
2023/07/10 07:24:01;;;;;;;14.13;10.80;;;;;;;20.03;100.00;100998.13;6146303;28;20036;-92
2023/07/10 07:27:04;;;;;;;16.02;11.10;;;;;;;20.06;100.00;100990.72;6141852;28;20624;-93
2023/07/10 07:30:07;;;;;;;15.05;11.35;;;;;;;20.00;100.00;100994.84;6145669;28;20031;-94
2023/07/10 07:33:09;;;;;;;16.17;11.50;;;;;;;20.03;100.00;100998.94;6143448;28;20078;-93
2023/07/10 07:36:11;;;;;;;18.73;13.15;;;;;;;20.18;100.00;101002.47;6145101;28;20039;-93
2023/07/10 07:39:15;;;;;;;18.13;13.40;;;;;;;20.06;100.00;101011.75;6145710;28;20044;-93
2023/07/10 07:42:17;;;;;;;18.23;13.48;;;;;;;20.01;100.00;101014.06;6147452;28;20053;-93
2023/07/10 07:45:19;;;;;;;19.77;14.25;;;;;;;19.97;100.00;101015.38;6142630;28;20428;-94
2023/07/10 07:48:22;;;;;;;18.02;13.93;;;;;;;19.97;100.00;101021.47;6153054;28;20051;-95
2023/07/10 07:51:24;;;;;;;19.63;13.95;;;;;;;20.27;100.00;101019.00;6137385;28;20047;-93
2023/07/10 07:54:26;;;;;;;19.48;12.95;;;;;;;20.34;100.00;101013.91;6147866;28;20039;-93
2023/07/10 07:57:28;;;;;;;16.77;12.30;;;;;;;20.74;100.00;101019.91;6142463;28;20202;-92
2023/07/10 08:00:30;;;;;;;16.05;11.90;;;;;;;21.08;100.00;101014.22;6151847;28;20511;-94
2023/07/10 08:03:32;;;;;;;14.52;10.90;;;;;;;21.17;100.00;101012.34;6148175;28;20051;-91
2023/07/10 08:06:35;;;;;;;15.25;11.48;;;;;;;21.02;100.00;101012.31;6148920;28;20525;-92
2023/07/10 08:09:37;;;;;;;15.77;10.77;;;;;;;20.92;100.00;101016.97;6146837;28;20039;-93
2023/07/10 08:12:39;;;;;;;12.98;9.73;;;;;;;20.94;100.00;101012.34;6144074;28;20047;-92
2023/07/10 08:15:42;;;;;;;14.82;9.70;;;;;;;20.83;100.00;101021.50;6145085;28;20501;-92
2023/07/10 08:18:44;;;;;;;14.25;9.88;;;;;;;20.78;100.00;101015.94;6142247;28;20681;-91
2023/07/10 08:21:47;;;;;;;11.57;9.43;;;;;;;20.90;100.00;101024.25;6149278;28;20071;-92
2023/07/10 08:24:48;;;;;;;14.00;9.23;;;;;;;21.42;100.00;101018.22;6143380;28;20101;-92
2023/07/10 08:27:50;;;;;;;12.38;10.13;;;;;;;21.48;100.00;101015.66;6148433;28;20417;-91
2023/07/10 08:30:53;;;;;;;12.65;8.70;;;;;;;21.35;100.00;101012.00;6151804;28;20143;-94
2023/07/10 08:33:55;;;;;;;12.60;8.70;;;;;;;21.39;100.00;101014.13;6140761;28;20062;-94
2023/07/10 08:37:03;;;;;;;12.88;8.40;;;;;;;21.70;100.00;101007.84;6143629;28;20035;-92
2023/07/10 08:40:12;;;;;;;12.63;9.27;;;;;;;22.19;100.00;101017.00;6148015;28;20051;-92
2023/07/10 08:43:29;;;;;;;12.40;8.70;;;;;;;22.76;100.00;101018.81;6145422;28;20047;-93
2023/07/10 08:46:32;;;;;;;11.73;8.80;;;;;;;23.19;100.00;101016.94;6148193;28;20042;-93
2023/07/10 08:49:41;;;;;;;10.23;7.93;;;;;;;23.29;100.00;101021.09;6147969;28;20039;-93
2023/07/10 08:53:12;;;;;;;9.95;7.38;;;;;;;23.03;100.00;101019.91;6150121;28;20048;-94
2023/07/10 08:56:20;;;;;;;10.55;7.70;;;;;;;22.58;100.00;101024.50;6150047;28;20039;-93
2023/07/10 08:59:37;;;;;;;13.43;9.30;;;;;;;22.30;100.00;101033.16;6151441;28;20391;-96
2023/07/10 09:03:02;;;;;;;12.55;9.35;;;;;;;21.97;100.00;101022.19;6131242;28;20051;-93
2023/07/10 09:06:10;;;;;;;12.00;9.00;;;;;;;21.82;100.00;101029.31;6140594;28;20043;-93
2023/07/10 09:09:54;;;;;;;11.88;9.23;;;;;;;21.83;100.00;101034.38;6142327;28;20049;-92
2023/07/10 09:13:01;;;;;;;11.43;8.38;;;;;;;22.52;100.00;101031.38;6133905;28;20067;-92
2023/07/10 09:16:17;;;;;;;12.48;8.25;;;;;;;23.29;100.00;101023.72;6138625;28;20044;-94
2023/07/10 09:19:21;;;;;;;13.35;8.23;;;;;;;23.58;100.00;101046.50;6135179;28;20426;-93
2023/07/10 09:22:23;;;;;;;11.25;8.32;;;;;;;23.90;100.00;101033.66;6143071;28;20038;-92
2023/07/10 09:25:25;;;;;;;14.30;7.43;;;;;;;24.04;100.00;101035.34;6139689;28;20050;-95
2023/07/10 09:28:28;;;;;;;13.38;8.43;;;;;;;24.08;100.00;101044.53;6144811;28;20047;-95
2023/07/10 09:31:55;;;;;;;10.68;8.32;;;;;;;23.90;100.00;101042.41;6155858;28;20047;-95
2023/07/10 09:34:59;;;;;;;14.95;8.18;;;;;;;23.58;100.00;101049.94;6145311;28;20071;-94
2023/07/10 09:38:02;;;;;;;12.85;7.32;;;;;;;23.14;100.00;101058.97;6147792;28;20740;-94
2023/07/10 09:41:12;;;;;;;11.43;7.72;;;;;;;22.64;100.00;101059.91;6142972;28;20047;-94
2023/07/10 09:44:18;;;;;;;10.73;8.43;;;;;;;22.06;100.00;101060.66;6141537;28;20047;-93
2023/07/10 09:47:21;;;;;;;12.57;8.52;;;;;;;21.59;100.00;101058.34;6134666;28;20035;-95
2023/07/10 09:50:24;;;;;;;15.60;9.13;;;;;;;21.29;100.00;101064.38;6141057;28;20412;-94
2023/07/10 09:53:41;;;;;;;12.80;9.75;;;;;;;21.10;100.00;101071.97;6131170;28;20055;-93
2023/07/10 09:56:47;;;;;;;18.58;11.13;;;;;;;21.26;100.00;101072.63;6131813;28;20126;-93
2023/07/10 09:59:52;;;;;;;13.85;10.98;;;;;;;21.53;100.00;101069.63;6147293;28;20113;-94
2023/07/10 10:03:07;;;;;;;15.32;11.00;;;;;;;21.83;100.00;101070.47;6138794;28;20055;-95
2023/07/10 10:06:28;;;;;;;16.80;10.73;;;;;;;22.19;100.00;101061.81;6143154;28;20517;-95
2023/07/10 10:09:30;;;;;;;15.02;9.15;;;;;;;22.78;100.00;101059.00;6137544;28;20399;-95
2023/07/10 10:12:36;;;;;;;12.77;9.23;;;;;;;23.05;100.00;101070.66;6156129;28;20051;-94
2023/07/10 10:15:53;;;;;;;9.88;6.60;;;;;;;23.21;100.00;101069.59;6155980;28;20043;-95
2023/07/10 10:19:06;;;;;;;8.98;5.15;;;;;;;23.10;100.00;101078.03;6180400;28;20065;-95
2023/07/10 10:22:10;;;;;;;7.18;4.75;;;;;;;23.08;100.00;101066.81;6154523;28;20046;-95
2023/07/10 10:25:17;;;;;;;5.55;4.57;;;;;;;23.19;100.00;101061.84;6148887;28;20469;-95
2023/07/10 10:28:35;;;;;;;8.32;5.15;;;;;;;23.43;100.00;101057.97;6152300;28;20038;-96
2023/07/10 10:31:46;;;;;;;7.25;4.60;;;;;;;23.86;100.00;101073.72;6145485;28;20031;-95
2023/07/10 10:35:08;;;;;;;5.55;4.13;;;;;;;24.28;100.00;101071.06;6149767;28;20061;-96
2023/07/10 10:38:44;;;;;;;7.97;4.57;;;;;;;24.40;100.00;101081.88;6151143;28;20051;-96
2023/07/10 10:42:14;;;;;;;5.65;3.83;;;;;;;24.23;100.00;101073.47;6152881;28;20107;-96
2023/07/10 10:45:27;;;;;;;6.15;4.07;;;;;;;23.92;100.00;101069.47;6138471;28;20043;-96
2023/07/10 10:48:45;;;;;;;5.75;3.55;;;;;;;23.72;100.00;101077.25;6138631;29;20522;-96
2023/07/10 10:52:10;;;;;;;6.07;3.28;;;;;;;23.62;100.00;101077.59;6151848;28;20039;-96
2023/07/10 10:55:33;;;;;;;6.15;3.65;;;;;;;23.75;100.00;101071.63;6136685;28;20134;-94
2023/07/10 10:59:13;;;;;;;4.80;3.30;;;;;;;24.02;100.00;101064.66;6136830;28;20043;-95
2023/07/10 11:02:36;;;;;;;5.47;3.20;;;;;;;24.27;100.00;101074.69;6136442;29;20525;-96
2023/07/10 11:05:53;;;;;;;5.85;3.28;;;;;;;24.30;100.00;101076.97;6141830;28;20049;-96
2023/07/10 11:09:00;;;;;;;5.45;3.00;;;;;;;24.40;100.00;101073.94;6144868;28;20427;-96
2023/07/10 11:12:16;;;;;;;4.20;2.95;;;;;;;24.35;100.00;101087.78;6121899;29;20630;-95
2023/07/10 11:15:21;;;;;;;4.65;2.38;;;;;;;24.30;100.00;101084.91;6146330;28;20094;-96
2023/07/10 11:18:25;;;;;;;3.70;2.63;;;;;;;24.58;100.00;101076.88;6147886;28;20031;-95
2023/07/10 11:21:28;;;;;;;2.92;2.20;;;;;;;24.88;100.00;101100.34;6161183;28;20572;-95
2023/07/10 11:24:34;;;;;;;4.80;2.65;;;;;;;24.96;100.00;101092.19;6151505;28;20051;-95
2023/07/10 11:27:42;;;;;;;6.20;2.58;;;;;;;25.17;100.00;101093.88;6148554;28;20042;-96
2023/07/10 11:30:44;;;;;;;3.38;2.28;;;;;;;25.48;100.00;101085.28;6143685;28;20054;-96
2023/07/10 11:34:08;;;;;;;3.35;2.17;;;;;;;25.95;100.00;101099.31;6139181;28;20591;-96
2023/07/10 11:38:02;;;;;;;4.72;2.40;;;;;;;26.38;100.00;101090.78;6138618;28;20489;-96
2023/07/10 11:41:23;;;;;;;3.80;2.28;;;;;;;26.48;100.00;101097.44;6147188;28;20068;-96
2023/07/10 11:44:34;;;;;;;3.85;2.20;;;;;;;26.76;100.00;101103.25;6162674;28;20039;-96
2023/07/10 11:47:49;;;;;;;5.50;3.55;;;;;;;26.40;100.00;101103.81;6157368;28;20047;-96
2023/07/10 11:51:03;;;;;;;4.95;2.50;;;;;;;26.14;100.00;101097.63;6138142;28;20449;-96
2023/07/10 11:54:12;;;;;;;3.75;2.45;;;;;;;26.24;100.00;101094.50;6129533;29;20116;-96
2023/07/10 11:57:37;;;;;;;3.97;2.40;;;;;;;26.63;100.00;101085.56;6138934;29;20071;-96
2023/07/10 12:00:39;;;;;;;3.40;2.40;;;;;;;26.55;100.00;101091.09;6137352;29;20043;-94
2023/07/10 12:03:43;;;;;;;4.20;2.55;;;;;;;26.27;100.00;101094.09;6122441;29;20179;-96
2023/07/10 12:06:46;;;;;;;4.05;2.20;;;;;;;26.08;100.00;101087.81;6130122;28;20051;-93
2023/07/10 12:09:52;;;;;;;4.93;2.80;;;;;;;25.99;100.00;101100.53;6126026;28;20122;-96
2023/07/10 12:12:57;;;;;;;5.03;2.40;;;;;;;26.09;100.00;101094.78;6125741;29;20052;-95
2023/07/10 12:16:09;;;;;;;3.17;2.50;;;;;;;26.45;100.00;101097.88;6133047;29;20513;-95
2023/07/10 12:19:16;;;;;;;3.60;2.53;;;;;;;26.19;100.00;101103.09;6140720;28;20175;-95
2023/07/10 12:22:25;;;;;;;4.97;2.97;;;;;;;25.72;100.00;101097.09;6121006;29;20043;-95
2023/07/10 12:25:27;;;;;;;3.58;2.70;;;;;;;25.45;100.00;101095.50;6124682;29;20127;-94
2023/07/10 12:28:30;;;;;;;3.83;3.10;;;;;;;25.97;100.00;101099.91;6119943;29;20048;-95
2023/07/10 12:31:38;;;;;;;4.15;2.70;;;;;;;26.28;100.00;101103.66;6120906;29;20138;-94
2023/07/10 12:34:41;;;;;;;2.88;2.38;;;;;;;25.88;100.00;101106.47;6121469;29;20046;-93
2023/07/10 12:37:48;;;;;;;4.85;2.40;;;;;;;25.58;100.00;101098.94;6120575;29;20043;-96
2023/07/10 12:40:50;;;;;;;3.80;2.63;;;;;;;25.51;100.00;101106.09;6118490;29;20048;-96
2023/07/10 12:43:56;;;;;;;4.45;2.53;;;;;;;25.88;100.00;101108.31;6127915;29;20050;-95
2023/07/10 12:47:13;;;;;;;2.92;2.40;;;;;;;25.88;100.00;101110.97;6125659;28;20409;-96
2023/07/10 12:50:14;;;;;;;5.25;2.50;;;;;;;26.26;100.00;101103.09;6117048;29;20515;-95
2023/07/10 12:53:23;;;;;;;6.53;2.80;;;;;;;26.43;100.00;101108.69;6120578;29;20392;-95
2023/07/10 12:56:39;;;;;;;5.03;2.38;;;;;;;26.14;100.00;101102.13;6119207;29;20043;-95
2023/07/10 12:59:42;;;;;;;3.78;2.60;;;;;;;25.99;100.00;101112.97;6122606;29;20043;-94
2023/07/10 13:02:47;;;;;;;3.33;2.40;;;;;;;26.07;100.00;101101.31;6121997;29;20050;-96
2023/07/10 13:05:54;;;;;;;4.72;2.60;;;;;;;26.50;100.00;101117.44;6118890;29;20050;-95
2023/07/10 13:09:00;;;;;;;2.63;2.05;;;;;;;26.88;100.00;101113.19;6118814;29;20051;-96
2023/07/10 13:12:04;;;;;;;4.07;2.60;;;;;;;27.18;100.00;101111.56;6127455;29;20747;-95
2023/07/10 13:15:10;;;;;;;4.82;2.80;;;;;;;26.90;100.00;101111.94;6112131;29;20055;-95
2023/07/10 13:18:30;;;;;;;3.75;2.60;;;;;;;26.89;100.00;101120.13;6119320;29;20489;-96
2023/07/10 13:21:32;;;;;;;6.05;2.50;;;;;;;27.47;100.00;101119.91;6122691;29;20060;-96
2023/07/10 13:24:34;;;;;;;3.90;2.50;;;;;;;27.66;100.00;101102.13;6122141;29;20054;-96
2023/07/10 13:27:36;;;;;;;5.00;2.72;;;;;;;27.79;100.00;101099.31;6122964;28;20062;-96
2023/07/10 13:30:38;;;;;;;4.57;2.30;;;;;;;27.95;100.00;101092.63;6118407;29;20066;-96
2023/07/10 13:33:40;;;;;;;3.50;2.30;;;;;;;27.98;100.00;101081.53;6119389;28;20051;-96
2023/07/10 13:36:43;;;;;;;3.13;2.53;;;;;;;28.16;100.00;101087.88;6120887;29;20044;-96
2023/07/10 13:39:47;;;;;;;3.83;2.30;;;;;;;28.12;100.00;101098.16;6115838;29;20048;-96
2023/07/10 13:42:49;;;;;;;3.53;2.40;;;;;;;27.90;100.00;101095.97;6130907;28;20051;-96
2023/07/10 13:45:59;;;;;;;4.03;2.45;;;;;;;27.88;100.00;101108.66;6121751;29;20036;-95
2023/07/10 13:49:09;;;;;;;4.53;2.55;;;;;;;27.47;100.00;101094.09;6126422;28;20068;-94
2023/07/10 13:52:16;;;;;;;;;;;;;;;26.89;100.00;101097.03;6102443;29;20047;-95
2023/07/10 13:55:17;;;;;;;1.83;1.58;;;;;;;26.70;100.00;101090.81;6106766;29;19931;-96
2023/07/10 13:58:23;;;;;;;2.90;1.63;;;;;;;26.78;100.00;101084.41;6118029;29;20593;-96
2023/07/10 14:01:25;;;;;;;2.75;1.73;;;;;;;27.38;100.00;101089.28;6118385;29;20047;-96
2023/07/10 14:04:27;;;;;;;3.05;1.42;;;;;;;28.12;100.00;101083.00;6121932;29;20387;-95
2023/07/10 14:07:30;;;;;;;3.85;1.90;;;;;;;27.81;100.00;101088.47;6118224;29;20126;-96
2023/07/10 14:10:32;;;;;;;3.65;1.80;;;;;;;27.23;100.00;101082.50;6123356;29;20059;-96